Schillplate — ZDJJ8 — position and weather

sailwx.info

Track history (hours):
 
Tides and Currents Weather Stations Pressure Air Temp Water Temp Dewpoint Dewpoint Depression Visibility Wind Speed Wind Dir Waves Ship Positions

Schillplate

Last reported at 2017-Jan-18 12:25 UTC. Time now 2017-Jan-18 14:09 UTC.
Position N 51°43' W 002°29'.

Length 86 m; draft 5.4 m.

Type: Cargo ship. MMSI: 236111603.

Date/timePositionNaut miles runAvg speedWind from/ knotsBaromVisibWave heightAir tempDewpointWater temp
2017-Jan-18 12:25N 51°43' W 002°29'0 0.0
2017-Jan-18 11:31N 51°43' W 002°28'0 0.0
2017-Jan-18 10:31N 51°43' W 002°28'0 0.0
2017-Jan-18 09:31N 51°43' W 002°28'0 0.0
2017-Jan-18 08:31N 51°43' W 002°28'0 0.0
2017-Jan-18 07:25N 51°43' W 002°28'0 0.0
2017-Jan-18 06:31N 51°43' W 002°28'0 0.0
2017-Jan-18 05:31N 51°43' W 002°28'0 0.0
2017-Jan-18 04:25N 51°43' W 002°28'0 0.0
2017-Jan-18 03:31N 51°43' W 002°28'0 0.0
2017-Jan-18 02:07N 51°43' W 002°28'0 0.0
2017-Jan-18 01:22N 51°43' W 002°28'0 0.0
2017-Jan-18 00:19N 51°43' W 002°28'0 0.0
2017-Jan-17 23:25N 51°43' W 002°28'0 0.0
2017-Jan-17 22:31N 51°43' W 002°28'0 0.0
2017-Jan-17 21:31N 51°43' W 002°28'0 0.0
2017-Jan-17 16:22N 51°43' W 002°28'0 0.0
2017-Jan-17 13:10N 51°43' W 002°28'0 0.1
2017-Jan-17 11:29N 51°43' W 002°29'0 0.4
2017-Jan-17 10:27N 51°43' W 002°29'8 9.0
2017-Jan-17 09:33N 51°37' W 002°39'1110.6
2017-Jan-17 08:33N 51°29' W 002°49'1010.4
2017-Jan-17 07:33N 51°24' W 003°04'57 6.9
2017-Jan-16 23:18N 51°06' W 004°31'6 8.0
2017-Jan-16 22:34N 51°02' W 004°37'9 9.0
2017-Jan-16 21:34N 50°56' W 004°48'10 9.7
2017-Jan-16 20:34N 50°49' W 004°59'10 9.9
2017-Jan-16 19:34N 50°43' W 005°11'1110.9
2017-Jan-16 18:34N 50°36' W 005°24'1111.5
2017-Jan-16 17:33N 50°29' W 005°38'1111.3
2017-Jan-16 16:33N 50°21' W 005°51'50 8.4
2017-Jan-16 10:32N 49°59' W 004°40'1010.2
2017-Jan-16 09:33N 50°01' W 004°25'166 9.8
2017-Jan-15 16:33N 50°32' W 000°10'1110.7
2017-Jan-15 15:33N 50°34' E 000°06'1010.3
2017-Jan-15 14:33N 50°37' E 000°22'9 9.3
2017-Jan-15 13:33N 50°40' E 000°36'9 8.8
2017-Jan-15 12:33N 50°45' E 000°47'19 8.9
2017-Jan-15 10:26N 50°55' E 001°12'1011.6
2017-Jan-15 09:34N 51°02' E 001°24'1312.8
2017-Jan-15 08:34N 51°10' E 001°39'1111.3
2017-Jan-15 07:34N 51°20' E 001°50'10 9.8
2017-Jan-15 06:33N 51°28' E 001°57'9 8.9
2017-Jan-15 05:33N 51°35' E 002°06'253 6.2
2017-Jan-13 12:23N 54°02' E 007°48'5 6.4
2017-Jan-13 11:33N 54°02' E 007°57'7 6.5
2017-Jan-13 10:32N 54°01' E 008°08'6 6.4
2017-Jan-13 09:33N 54°00' E 008°19'5 5.4
2017-Jan-13 08:33N 53°59' E 008°28'6 6.4
2017-Jan-13 07:34N 53°57' E 008°38'1010.2
2017-Jan-13 06:33N 53°50' E 008°51'1111.5
2017-Jan-13 05:33N 53°53' E 009°10'1010.4
2017-Jan-13 04:34N 53°46' E 009°24'9 9.2
2017-Jan-13 03:33N 53°38' E 009°32'8 8.0
2017-Jan-13 02:33N 53°34' E 009°43'8 7.7
2017-Jan-13 01:34N 53°32' E 009°56'2 2.4
2017-Jan-13 00:33N 53°30' E 009°57'0 0.0
2017-Jan-12 23:33N 53°30' E 009°57'0 0.0
2017-Jan-12 22:30N 53°30' E 009°57'0 0.0
2017-Jan-12 21:33N 53°30' E 009°57'0 0.0
2017-Jan-12 20:33N 53°30' E 009°57'0 0.0
2017-Jan-12 19:33N 53°30' E 009°57'0 0.0
2017-Jan-12 18:33N 53°30' E 009°57'0 0.0
2017-Jan-12 17:30N 53°30' E 009°57'0 0.0
2017-Jan-12 16:33N 53°30' E 009°57'0 0.0
2017-Jan-12 15:33N 53°30' E 009°57'0 0.0
2017-Jan-12 14:33N 53°30' E 009°57'0 0.0
2017-Jan-12 13:33N 53°30' E 009°57'0 0.0
2017-Jan-12 12:33N 53°30' E 009°57'0 0.0
2017-Jan-12 11:33N 53°30' E 009°57'0 0.0
2017-Jan-12 10:33N 53°30' E 009°57'0 0.0
2017-Jan-12 09:30N 53°30' E 009°57'0 0.0
2017-Jan-12 08:33N 53°30' E 009°57'0 0.0
2017-Jan-12 07:33N 53°30' E 009°57'0 0.0
2017-Jan-12 06:33N 53°30' E 009°57'3 3.2
2017-Jan-12 05:33N 53°33' E 009°53'8 8.2
2017-Jan-12 04:33N 53°34' E 009°40'5 4.9
2017-Jan-12 03:29N 53°37' E 009°33'0 0.1
2017-Jan-12 02:32N 53°37' E 009°33'0 0.1
2017-Jan-12 01:32N 53°37' E 009°33'0 0.0
2017-Jan-12 00:32N 53°37' E 009°33'0 0.0
2017-Jan-11 23:33N 53°37' E 009°33'7 7.3
2017-Jan-11 22:34N 53°44' E 009°27'1312.7
2017-Jan-11 21:34N 53°53' E 009°13'1414.0
2017-Jan-11 20:33N 53°50' E 008°49'1313.0
2017-Jan-11 19:33N 53°58' E 008°32'1313.1
2017-Jan-11 18:34N 53°59' E 008°09'1211.6
2017-Jan-11 17:33N 54°04' E 007°51'  
Track history (hours):
 
Tides and Currents Weather Stations Pressure Air Temp Water Temp Dewpoint Dewpoint Depression Visibility Wind Speed Wind Dir Waves Ship Positions

Schillplate

Last reported at 2017-Jan-18 12:25 UTC. Time now 2017-Jan-18 14:09 UTC.
Position N 51°43' W 002°29'.

Length 86 m; draft 5.4 m.

Type: Cargo ship. MMSI: 236111603.

Date/timePositionNaut miles runAvg speedWind from/ knotsBaromVisibWave heightAir tempDewpointWater temp
2017-Jan-18 12:25N 51°43' W 002°29'0 0.0
2017-Jan-18 11:31N 51°43' W 002°28'0 0.0
2017-Jan-18 10:31N 51°43' W 002°28'0 0.0
2017-Jan-18 09:31N 51°43' W 002°28'0 0.0
2017-Jan-18 08:31N 51°43' W 002°28'0 0.0
2017-Jan-18 07:25N 51°43' W 002°28'0 0.0
2017-Jan-18 06:31N 51°43' W 002°28'0 0.0
2017-Jan-18 05:31N 51°43' W 002°28'0 0.0
2017-Jan-18 04:25N 51°43' W 002°28'0 0.0
2017-Jan-18 03:31N 51°43' W 002°28'0 0.0
2017-Jan-18 02:07N 51°43' W 002°28'0 0.0
2017-Jan-18 01:22N 51°43' W 002°28'0 0.0
2017-Jan-18 00:19N 51°43' W 002°28'0 0.0
2017-Jan-17 23:25N 51°43' W 002°28'0 0.0
2017-Jan-17 22:31N 51°43' W 002°28'0 0.0
2017-Jan-17 21:31N 51°43' W 002°28'0 0.0
2017-Jan-17 16:22N 51°43' W 002°28'0 0.0
2017-Jan-17 13:10N 51°43' W 002°28'0 0.1
2017-Jan-17 11:29N 51°43' W 002°29'0 0.4
2017-Jan-17 10:27N 51°43' W 002°29'8 9.0
2017-Jan-17 09:33N 51°37' W 002°39'1110.6
2017-Jan-17 08:33N 51°29' W 002°49'1010.4
2017-Jan-17 07:33N 51°24' W 003°04'57 6.9
2017-Jan-16 23:18N 51°06' W 004°31'6 8.0
2017-Jan-16 22:34N 51°02' W 004°37'9 9.0
2017-Jan-16 21:34N 50°56' W 004°48'10 9.7
2017-Jan-16 20:34N 50°49' W 004°59'10 9.9
2017-Jan-16 19:34N 50°43' W 005°11'1110.9
2017-Jan-16 18:34N 50°36' W 005°24'1111.5
2017-Jan-16 17:33N 50°29' W 005°38'1111.3
2017-Jan-16 16:33N 50°21' W 005°51'50 8.4
2017-Jan-16 10:32N 49°59' W 004°40'1010.2
2017-Jan-16 09:33N 50°01' W 004°25'166 9.8
2017-Jan-15 16:33N 50°32' W 000°10'1110.7
2017-Jan-15 15:33N 50°34' E 000°06'1010.3
2017-Jan-15 14:33N 50°37' E 000°22'9 9.3
2017-Jan-15 13:33N 50°40' E 000°36'9 8.8
2017-Jan-15 12:33N 50°45' E 000°47'19 8.9
2017-Jan-15 10:26N 50°55' E 001°12'1011.6
2017-Jan-15 09:34N 51°02' E 001°24'1312.8
2017-Jan-15 08:34N 51°10' E 001°39'1111.3
2017-Jan-15 07:34N 51°20' E 001°50'10 9.8
2017-Jan-15 06:33N 51°28' E 001°57'9 8.9
2017-Jan-15 05:33N 51°35' E 002°06'253 6.2
2017-Jan-13 12:23N 54°02' E 007°48'5 6.4
2017-Jan-13 11:33N 54°02' E 007°57'7 6.5
2017-Jan-13 10:32N 54°01' E 008°08'6 6.4
2017-Jan-13 09:33N 54°00' E 008°19'5 5.4
2017-Jan-13 08:33N 53°59' E 008°28'6 6.4
2017-Jan-13 07:34N 53°57' E 008°38'1010.2
2017-Jan-13 06:33N 53°50' E 008°51'1111.5
2017-Jan-13 05:33N 53°53' E 009°10'1010.4
2017-Jan-13 04:34N 53°46' E 009°24'9 9.2
2017-Jan-13 03:33N 53°38' E 009°32'8 8.0
2017-Jan-13 02:33N 53°34' E 009°43'8 7.7
2017-Jan-13 01:34N 53°32' E 009°56'2 2.4
2017-Jan-13 00:33N 53°30' E 009°57'0 0.0
2017-Jan-12 23:33N 53°30' E 009°57'0 0.0
2017-Jan-12 22:30N 53°30' E 009°57'0 0.0
2017-Jan-12 21:33N 53°30' E 009°57'0 0.0
2017-Jan-12 20:33N 53°30' E 009°57'0 0.0
2017-Jan-12 19:33N 53°30' E 009°57'0 0.0
2017-Jan-12 18:33N 53°30' E 009°57'0 0.0
2017-Jan-12 17:30N 53°30' E 009°57'0 0.0
2017-Jan-12 16:33N 53°30' E 009°57'0 0.0
2017-Jan-12 15:33N 53°30' E 009°57'0 0.0
2017-Jan-12 14:33N 53°30' E 009°57'0 0.0
2017-Jan-12 13:33N 53°30' E 009°57'0 0.0
2017-Jan-12 12:33N 53°30' E 009°57'0 0.0
2017-Jan-12 11:33N 53°30' E 009°57'0 0.0
2017-Jan-12 10:33N 53°30' E 009°57'0 0.0
2017-Jan-12 09:30N 53°30' E 009°57'0 0.0
2017-Jan-12 08:33N 53°30' E 009°57'0 0.0
2017-Jan-12 07:33N 53°30' E 009°57'0 0.0
2017-Jan-12 06:33N 53°30' E 009°57'3 3.2
2017-Jan-12 05:33N 53°33' E 009°53'8 8.2
2017-Jan-12 04:33N 53°34' E 009°40'5 4.9
2017-Jan-12 03:29N 53°37' E 009°33'0 0.1
2017-Jan-12 02:32N 53°37' E 009°33'0 0.1
2017-Jan-12 01:32N 53°37' E 009°33'0 0.0
2017-Jan-12 00:32N 53°37' E 009°33'0 0.0
2017-Jan-11 23:33N 53°37' E 009°33'7 7.3
2017-Jan-11 22:34N 53°44' E 009°27'1312.7
2017-Jan-11 21:34N 53°53' E 009°13'1414.0
2017-Jan-11 20:33N 53°50' E 008°49'1313.0
2017-Jan-11 19:33N 53°58' E 008°32'1313.1
2017-Jan-11 18:34N 53°59' E 008°09'1211.6
2017-Jan-11 17:33N 54°04' E 007°51'  

Dump ship's entire track history